Portada
METAR-TAF:

METAR-TAF

Aeroports :

Shell Mera, Equador

latitud: 01-30-19S, longitud: 078-03-46W, altitud: 1056 m

Observació

L'informe es va fer fa 23 minuts, a les 11:00 UTC
Vent calma
Temperatura 20°C
Humitat 94%
Pressió 1017 hPa
Visibilitat: 1000 m
Núvols disperses a una alçada de 300 ft
Cel ennuvolat a una alçada de 3000 ft
Cel cobert a una alçada de 10000 ft
boirina

METAR: SESM 231100Z 00000KT 1000 BR SCT003 BKN030 OVC100 20/19 Q1017 RMK A3003

Hora: 06:23 (11:23 UTC)


TAF: manca

Observacions i pronòstics meteorològics de més de 4000 aeroports (METAR i TAF).

Les estacions disponibles són els punts grocs i vermells al mapa.

Posi el ratolí al punt desitjat per veure el nom de l'estació.

Feu clic per veure les observacions i els pronòstics meteorològics.

Per canviar el mapa: feu clic els botons verds amb una creu de color negre per apropar; al botó verd amb un guió per allunyar la imatge; o en les fletxes verdes per a mapes adjacents.


METAR-TAF: